sensor_id;sensor_type;location;lat;lon;timestamp;P1;durP1;ratioP1;P2;durP2;ratioP2
40787;SDS011;26497;52.494;7.546;2022-07-22T00:00:49;4.00;;;2.03;;
40787;SDS011;26497;52.494;7.546;2022-07-22T00:03:18;8.85;;;1.98;;
40787;SDS011;26497;52.494;7.546;2022-07-22T00:05:45;5.53;;;1.92;;
40787;SDS011;26497;52.494;7.546;2022-07-22T00:08:12;5.43;;;1.95;;
40787;SDS011;26497;52.494;7.546;2022-07-22T00:10:39;12.18;;;2.03;;
40787;SDS011;26497;52.494;7.546;2022-07-22T00:13:07;8.88;;;1.80;;
40787;SDS011;26497;52.494;7.546;2022-07-22T00:15:34;9.13;;;2.08;;
40787;SDS011;26497;52.494;7.546;2022-07-22T00:18:01;14.02;;;2.40;;
40787;SDS011;26497;52.494;7.546;2022-07-22T00:20:29;18.17;;;3.60;;
40787;SDS011;26497;52.494;7.546;2022-07-22T00:22:56;11.02;;;2.47;;
40787;SDS011;26497;52.494;7.546;2022-07-22T00:25:23;7.28;;;2.58;;
40787;SDS011;26497;52.494;7.546;2022-07-22T00:27:50;18.08;;;2.83;;
40787;SDS011;26497;52.494;7.546;2022-07-22T00:30:17;10.43;;;2.35;;
40787;SDS011;26497;52.494;7.546;2022-07-22T00:32:44;7.22;;;2.33;;
40787;SDS011;26497;52.494;7.546;2022-07-22T00:35:11;3.13;;;2.05;;
40787;SDS011;26497;52.494;7.546;2022-07-22T00:37:39;8.50;;;1.95;;
40787;SDS011;26497;52.494;7.546;2022-07-22T00:40:07;5.45;;;2.22;;
40787;SDS011;26497;52.494;7.546;2022-07-22T00:42:35;12.57;;;2.53;;
40787;SDS011;26497;52.494;7.546;2022-07-22T00:45:03;7.60;;;1.88;;
40787;SDS011;26497;52.494;7.546;2022-07-22T00:47:31;4.07;;;1.75;;
40787;SDS011;26497;52.494;7.546;2022-07-22T00:49:59;24.45;;;3.85;;
40787;SDS011;26497;52.494;7.546;2022-07-22T00:52:26;3.33;;;1.65;;
40787;SDS011;26497;52.494;7.546;2022-07-22T00:54:55;7.78;;;1.50;;
40787;SDS011;26497;52.494;7.546;2022-07-22T00:57:24;4.43;;;0.75;;
40787;SDS011;26497;52.494;7.546;2022-07-22T00:59:51;10.57;;;0.90;;
40787;SDS011;26497;52.494;7.546;2022-07-22T01:02:18;4.13;;;1.05;;
40787;SDS011;26497;52.494;7.546;2022-07-22T01:04:46;4.95;;;1.25;;
40787;SDS011;26497;52.494;7.546;2022-07-22T01:07:13;4.70;;;1.42;;
40787;SDS011;26497;52.494;7.546;2022-07-22T01:09:41;5.68;;;1.20;;
40787;SDS011;26497;52.494;7.546;2022-07-22T01:12:11;6.95;;;1.10;;
40787;SDS011;26497;52.494;7.546;2022-07-22T01:14:39;5.68;;;1.02;;
40787;SDS011;26497;52.494;7.546;2022-07-22T01:17:06;4.68;;;1.08;;
40787;SDS011;26497;52.494;7.546;2022-07-22T01:19:33;1.25;;;0.93;;
40787;SDS011;26497;52.494;7.546;2022-07-22T01:22:03;11.55;;;1.02;;
40787;SDS011;26497;52.494;7.546;2022-07-22T01:24:31;17.80;;;1.88;;
40787;SDS011;26497;52.494;7.546;2022-07-22T01:26:58;6.35;;;0.82;;
40787;SDS011;26497;52.494;7.546;2022-07-22T01:29:25;4.50;;;1.70;;
40787;SDS011;26497;52.494;7.546;2022-07-22T01:31:53;6.03;;;1.10;;
40787;SDS011;26497;52.494;7.546;2022-07-22T01:34:20;1.80;;;1.08;;
40787;SDS011;26497;52.494;7.546;2022-07-22T01:36:47;2.08;;;0.88;;
40787;SDS011;26497;52.494;7.546;2022-07-22T01:39:15;3.50;;;1.08;;
40787;SDS011;26497;52.494;7.546;2022-07-22T01:41:43;6.05;;;1.00;;
40787;SDS011;26497;52.494;7.546;2022-07-22T01:44:10;2.47;;;1.40;;
40787;SDS011;26497;52.494;7.546;2022-07-22T01:46:37;2.92;;;1.58;;
40787;SDS011;26497;52.494;7.546;2022-07-22T01:49:04;4.93;;;1.90;;
40787;SDS011;26497;52.494;7.546;2022-07-22T01:51:31;9.65;;;2.35;;
40787;SDS011;26497;52.494;7.546;2022-07-22T01:53:58;5.30;;;1.58;;
40787;SDS011;26497;52.494;7.546;2022-07-22T01:56:27;1.80;;;1.23;;
40787;SDS011;26497;52.494;7.546;2022-07-22T01:58:54;6.43;;;2.55;;
40787;SDS011;26497;52.494;7.546;2022-07-22T02:01:20;9.32;;;2.72;;
40787;SDS011;26497;52.494;7.546;2022-07-22T02:03:49;3.97;;;2.75;;
40787;SDS011;26497;52.494;7.546;2022-07-22T02:06:16;7.35;;;2.58;;
40787;SDS011;26497;52.494;7.546;2022-07-22T02:08:43;5.65;;;2.45;;
40787;SDS011;26497;52.494;7.546;2022-07-22T02:11:10;10.70;;;4.32;;
40787;SDS011;26497;52.494;7.546;2022-07-22T02:13:38;4.78;;;2.60;;
40787;SDS011;26497;52.494;7.546;2022-07-22T02:16:05;7.05;;;2.78;;
40787;SDS011;26497;52.494;7.546;2022-07-22T02:18:32;6.50;;;2.80;;
40787;SDS011;26497;52.494;7.546;2022-07-22T02:20:59;4.95;;;2.75;;
40787;SDS011;26497;52.494;7.546;2022-07-22T02:23:26;9.60;;;2.90;;
40787;SDS011;26497;52.494;7.546;2022-07-22T02:25:53;12.30;;;2.92;;
40787;SDS011;26497;52.494;7.546;2022-07-22T02:28:20;4.70;;;3.22;;
40787;SDS011;26497;52.494;7.546;2022-07-22T02:30:49;7.53;;;3.20;;
40787;SDS011;26497;52.494;7.546;2022-07-22T02:33:15;4.72;;;1.67;;
40787;SDS011;26497;52.494;7.546;2022-07-22T02:35:42;5.45;;;1.50;;
40787;SDS011;26497;52.494;7.546;2022-07-22T02:38:09;8.57;;;2.85;;
40787;SDS011;26497;52.494;7.546;2022-07-22T02:40:37;11.38;;;2.90;;
40787;SDS011;26497;52.494;7.546;2022-07-22T02:43:04;17.45;;;3.22;;
40787;SDS011;26497;52.494;7.546;2022-07-22T02:45:32;5.05;;;3.13;;
40787;SDS011;26497;52.494;7.546;2022-07-22T02:48:00;12.30;;;4.18;;
40787;SDS011;26497;52.494;7.546;2022-07-22T02:50:27;15.20;;;4.18;;
40787;SDS011;26497;52.494;7.546;2022-07-22T02:52:54;9.57;;;4.13;;
40787;SDS011;26497;52.494;7.546;2022-07-22T02:55:21;13.15;;;4.22;;
40787;SDS011;26497;52.494;7.546;2022-07-22T02:57:49;8.00;;;4.22;;
40787;SDS011;26497;52.494;7.546;2022-07-22T03:00:16;17.10;;;5.07;;
40787;SDS011;26497;52.494;7.546;2022-07-22T03:02:43;21.50;;;4.35;;
40787;SDS011;26497;52.494;7.546;2022-07-22T03:05:11;15.10;;;5.68;;
40787;SDS011;26497;52.494;7.546;2022-07-22T03:07:38;20.30;;;4.22;;
40787;SDS011;26497;52.494;7.546;2022-07-22T03:10:05;12.40;;;4.40;;
40787;SDS011;26497;52.494;7.546;2022-07-22T03:12:34;21.50;;;6.25;;
40787;SDS011;26497;52.494;7.546;2022-07-22T03:15:02;17.23;;;5.00;;
40787;SDS011;26497;52.494;7.546;2022-07-22T03:17:32;22.05;;;5.25;;
40787;SDS011;26497;52.494;7.546;2022-07-22T03:20:01;11.50;;;4.50;;
40787;SDS011;26497;52.494;7.546;2022-07-22T03:22:30;14.85;;;4.80;;
40787;SDS011;26497;52.494;7.546;2022-07-22T03:24:57;20.58;;;5.53;;
40787;SDS011;26497;52.494;7.546;2022-07-22T03:27:24;19.45;;;5.55;;
40787;SDS011;26497;52.494;7.546;2022-07-22T03:29:52;15.70;;;4.85;;
40787;SDS011;26497;52.494;7.546;2022-07-22T03:32:19;15.75;;;5.75;;
40787;SDS011;26497;52.494;7.546;2022-07-22T03:34:46;18.35;;;6.93;;
40787;SDS011;26497;52.494;7.546;2022-07-22T03:37:13;37.90;;;6.22;;
40787;SDS011;26497;52.494;7.546;2022-07-22T03:39:41;16.02;;;7.50;;
40787;SDS011;26497;52.494;7.546;2022-07-22T03:42:08;10.73;;;5.07;;
40787;SDS011;26497;52.494;7.546;2022-07-22T03:44:35;13.63;;;6.03;;
40787;SDS011;26497;52.494;7.546;2022-07-22T03:47:02;15.05;;;5.15;;
40787;SDS011;26497;52.494;7.546;2022-07-22T03:49:29;18.30;;;6.28;;
40787;SDS011;26497;52.494;7.546;2022-07-22T03:51:57;18.65;;;6.28;;
40787;SDS011;26497;52.494;7.546;2022-07-22T03:54:24;19.13;;;5.20;;
40787;SDS011;26497;52.494;7.546;2022-07-22T03:56:52;15.60;;;6.03;;
40787;SDS011;26497;52.494;7.546;2022-07-22T03:59:19;25.90;;;5.32;;
40787;SDS011;26497;52.494;7.546;2022-07-22T04:01:46;16.17;;;5.72;;
40787;SDS011;26497;52.494;7.546;2022-07-22T04:04:14;34.50;;;7.25;;
40787;SDS011;26497;52.494;7.546;2022-07-22T04:06:41;21.45;;;6.05;;
40787;SDS011;26497;52.494;7.546;2022-07-22T04:09:09;23.80;;;7.13;;
40787;SDS011;26497;52.494;7.546;2022-07-22T04:11:37;18.83;;;5.38;;
40787;SDS011;26497;52.494;7.546;2022-07-22T04:14:05;10.95;;;5.43;;
40787;SDS011;26497;52.494;7.546;2022-07-22T04:16:32;29.33;;;6.57;;
40787;SDS011;26497;52.494;7.546;2022-07-22T04:19:00;11.93;;;5.88;;
40787;SDS011;26497;52.494;7.546;2022-07-22T04:21:27;20.60;;;5.40;;
40787;SDS011;26497;52.494;7.546;2022-07-22T04:23:54;24.30;;;6.63;;
40787;SDS011;26497;52.494;7.546;2022-07-22T04:26:21;18.92;;;6.25;;
40787;SDS011;26497;52.494;7.546;2022-07-22T04:28:48;22.13;;;6.25;;
40787;SDS011;26497;52.494;7.546;2022-07-22T04:31:16;26.80;;;6.28;;
40787;SDS011;26497;52.494;7.546;2022-07-22T04:33:43;19.50;;;5.72;;
40787;SDS011;26497;52.494;7.546;2022-07-22T04:36:10;14.35;;;5.20;;
40787;SDS011;26497;52.494;7.546;2022-07-22T04:38:37;9.80;;;4.72;;
40787;SDS011;26497;52.494;7.546;2022-07-22T04:41:04;16.40;;;5.10;;
40787;SDS011;26497;52.494;7.546;2022-07-22T04:43:31;12.30;;;5.05;;
40787;SDS011;26497;52.494;7.546;2022-07-22T04:45:58;12.13;;;4.60;;
40787;SDS011;26497;52.494;7.546;2022-07-22T04:48:27;24.98;;;4.82;;
40787;SDS011;26497;52.494;7.546;2022-07-22T04:50:57;11.57;;;4.78;;
40787;SDS011;26497;52.494;7.546;2022-07-22T04:55:52;16.42;;;4.05;;
40787;SDS011;26497;52.494;7.546;2022-07-22T04:58:20;16.08;;;4.85;;
40787;SDS011;26497;52.494;7.546;2022-07-22T05:00:47;16.65;;;5.18;;
40787;SDS011;26497;52.494;7.546;2022-07-22T05:03:15;15.55;;;4.13;;
40787;SDS011;26497;52.494;7.546;2022-07-22T05:05:43;11.52;;;4.53;;
40787;SDS011;26497;52.494;7.546;2022-07-22T05:08:11;10.85;;;4.93;;
40787;SDS011;26497;52.494;7.546;2022-07-22T05:10:37;15.65;;;3.95;;
40787;SDS011;26497;52.494;7.546;2022-07-22T05:13:04;14.82;;;4.22;;
40787;SDS011;26497;52.494;7.546;2022-07-22T05:15:32;15.55;;;4.65;;
40787;SDS011;26497;52.494;7.546;2022-07-22T05:17:59;15.05;;;3.80;;
40787;SDS011;26497;52.494;7.546;2022-07-22T05:20:26;13.75;;;4.05;;
40787;SDS011;26497;52.494;7.546;2022-07-22T05:22:55;22.30;;;4.90;;
40787;SDS011;26497;52.494;7.546;2022-07-22T05:25:22;3.92;;;2.60;;
40787;SDS011;26497;52.494;7.546;2022-07-22T05:27:49;4.20;;;2.50;;
40787;SDS011;26497;52.494;7.546;2022-07-22T05:30:17;15.23;;;3.22;;
40787;SDS011;26497;52.494;7.546;2022-07-22T05:32:44;9.65;;;3.20;;
40787;SDS011;26497;52.494;7.546;2022-07-22T05:35:11;13.95;;;4.50;;
40787;SDS011;26497;52.494;7.546;2022-07-22T05:37:39;12.10;;;2.63;;
40787;SDS011;26497;52.494;7.546;2022-07-22T05:40:08;10.00;;;2.50;;
40787;SDS011;26497;52.494;7.546;2022-07-22T05:42:35;6.68;;;2.50;;
40787;SDS011;26497;52.494;7.546;2022-07-22T05:45:03;16.98;;;2.63;;
40787;SDS011;26497;52.494;7.546;2022-07-22T05:47:30;8.10;;;2.03;;
40787;SDS011;26497;52.494;7.546;2022-07-22T05:49:57;7.40;;;1.75;;
40787;SDS011;26497;52.494;7.546;2022-07-22T05:52:24;10.07;;;2.42;;
40787;SDS011;26497;52.494;7.546;2022-07-22T05:54:51;5.43;;;1.20;;
40787;SDS011;26497;52.494;7.546;2022-07-22T05:57:20;7.90;;;1.67;;
40787;SDS011;26497;52.494;7.546;2022-07-22T05:59:47;4.85;;;1.45;;
40787;SDS011;26497;52.494;7.546;2022-07-22T06:02:14;7.35;;;1.92;;
40787;SDS011;26497;52.494;7.546;2022-07-22T06:04:41;4.57;;;1.70;;
40787;SDS011;26497;52.494;7.546;2022-07-22T06:07:08;4.55;;;1.88;;
40787;SDS011;26497;52.494;7.546;2022-07-22T06:09:35;5.68;;;1.50;;
40787;SDS011;26497;52.494;7.546;2022-07-22T06:12:02;10.52;;;2.42;;
40787;SDS011;26497;52.494;7.546;2022-07-22T06:14:31;7.72;;;1.92;;
40787;SDS011;26497;52.494;7.546;2022-07-22T06:16:58;6.90;;;1.67;;
40787;SDS011;26497;52.494;7.546;2022-07-22T06:19:25;7.38;;;2.13;;
40787;SDS011;26497;52.494;7.546;2022-07-22T06:21:54;10.30;;;2.38;;
40787;SDS011;26497;52.494;7.546;2022-07-22T06:24:21;6.20;;;1.02;;
40787;SDS011;26497;52.494;7.546;2022-07-22T06:26:48;5.35;;;1.00;;
40787;SDS011;26497;52.494;7.546;2022-07-22T06:29:16;4.38;;;1.05;;
40787;SDS011;26497;52.494;7.546;2022-07-22T06:31:44;9.25;;;1.38;;
40787;SDS011;26497;52.494;7.546;2022-07-22T06:34:11;14.35;;;1.92;;
40787;SDS011;26497;52.494;7.546;2022-07-22T06:36:38;10.18;;;2.10;;
40787;SDS011;26497;52.494;7.546;2022-07-22T06:39:05;7.15;;;1.77;;
40787;SDS011;26497;52.494;7.546;2022-07-22T06:41:32;11.02;;;1.02;;
40787;SDS011;26497;52.494;7.546;2022-07-22T06:43:59;8.02;;;0.93;;
40787;SDS011;26497;52.494;7.546;2022-07-22T06:46:26;2.90;;;0.73;;
40787;SDS011;26497;52.494;7.546;2022-07-22T06:48:54;5.97;;;1.60;;
40787;SDS011;26497;52.494;7.546;2022-07-22T06:51:21;4.22;;;1.13;;
40787;SDS011;26497;52.494;7.546;2022-07-22T06:53:48;1.83;;;0.90;;
40787;SDS011;26497;52.494;7.546;2022-07-22T06:56:15;5.88;;;1.42;;
40787;SDS011;26497;52.494;7.546;2022-07-22T06:58:42;9.77;;;1.17;;
40787;SDS011;26497;52.494;7.546;2022-07-22T07:01:09;1.42;;;0.60;;
40787;SDS011;26497;52.494;7.546;2022-07-22T07:03:36;3.90;;;1.05;;
40787;SDS011;26497;52.494;7.546;2022-07-22T07:06:06;1.52;;;1.38;;
40787;SDS011;26497;52.494;7.546;2022-07-22T07:08:36;4.80;;;1.10;;
40787;SDS011;26497;52.494;7.546;2022-07-22T07:11:03;2.75;;;0.80;;
40787;SDS011;26497;52.494;7.546;2022-07-22T07:13:31;5.25;;;0.60;;
40787;SDS011;26497;52.494;7.546;2022-07-22T07:15:58;4.18;;;0.80;;
40787;SDS011;26497;52.494;7.546;2022-07-22T07:18:25;6.30;;;1.25;;
40787;SDS011;26497;52.494;7.546;2022-07-22T07:20:52;2.67;;;0.70;;
40787;SDS011;26497;52.494;7.546;2022-07-22T07:23:20;3.40;;;0.68;;
40787;SDS011;26497;52.494;7.546;2022-07-22T07:25:48;5.13;;;1.08;;
40787;SDS011;26497;52.494;7.546;2022-07-22T07:28:15;4.28;;;1.20;;
40787;SDS011;26497;52.494;7.546;2022-07-22T07:30:42;4.28;;;0.77;;
40787;SDS011;26497;52.494;7.546;2022-07-22T07:33:09;3.53;;;0.95;;
40787;SDS011;26497;52.494;7.546;2022-07-22T07:35:36;3.85;;;0.73;;
40787;SDS011;26497;52.494;7.546;2022-07-22T07:38:03;3.42;;;0.63;;
40787;SDS011;26497;52.494;7.546;2022-07-22T07:40:32;4.35;;;0.63;;
40787;SDS011;26497;52.494;7.546;2022-07-22T07:42:59;3.13;;;0.68;;
40787;SDS011;26497;52.494;7.546;2022-07-22T07:45:26;2.47;;;0.55;;
40787;SDS011;26497;52.494;7.546;2022-07-22T07:47:53;7.82;;;1.98;;
40787;SDS011;26497;52.494;7.546;2022-07-22T07:50:20;1.77;;;0.55;;
40787;SDS011;26497;52.494;7.546;2022-07-22T07:52:47;3.38;;;0.63;;
40787;SDS011;26497;52.494;7.546;2022-07-22T07:55:14;2.25;;;1.27;;
40787;SDS011;26497;52.494;7.546;2022-07-22T07:57:43;6.05;;;0.75;;
40787;SDS011;26497;52.494;7.546;2022-07-22T08:00:14;2.70;;;0.55;;
40787;SDS011;26497;52.494;7.546;2022-07-22T08:02:44;1.52;;;0.65;;
40787;SDS011;26497;52.494;7.546;2022-07-22T08:05:10;3.38;;;0.68;;
40787;SDS011;26497;52.494;7.546;2022-07-22T08:07:38;4.32;;;0.70;;
40787;SDS011;26497;52.494;7.546;2022-07-22T08:10:06;2.50;;;1.20;;
40787;SDS011;26497;52.494;7.546;2022-07-22T08:12:35;4.10;;;1.30;;
40787;SDS011;26497;52.494;7.546;2022-07-22T08:15:03;1.70;;;0.93;;
40787;SDS011;26497;52.494;7.546;2022-07-22T08:21:12;4.65;;;0.50;;
40787;SDS011;26497;52.494;7.546;2022-07-22T08:23:39;5.13;;;0.52;;
40787;SDS011;26497;52.494;7.546;2022-07-22T08:26:07;3.35;;;0.70;;
40787;SDS011;26497;52.494;7.546;2022-07-22T08:28:33;1.42;;;0.45;;
40787;SDS011;26497;52.494;7.546;2022-07-22T08:31:02;2.92;;;1.08;;
40787;SDS011;26497;52.494;7.546;2022-07-22T08:33:29;7.03;;;1.20;;
40787;SDS011;26497;52.494;7.546;2022-07-22T08:35:56;4.40;;;0.68;;
40787;SDS011;26497;52.494;7.546;2022-07-22T08:38:23;4.13;;;0.47;;
40787;SDS011;26497;52.494;7.546;2022-07-22T08:40:50;1.58;;;0.57;;
40787;SDS011;26497;52.494;7.546;2022-07-22T08:43:21;2.13;;;0.52;;
40787;SDS011;26497;52.494;7.546;2022-07-22T08:45:48;5.07;;;0.43;;
40787;SDS011;26497;52.494;7.546;2022-07-22T08:48:17;4.78;;;0.70;;
40787;SDS011;26497;52.494;7.546;2022-07-22T08:50:44;4.20;;;0.77;;
40787;SDS011;26497;52.494;7.546;2022-07-22T08:53:11;3.08;;;0.95;;
40787;SDS011;26497;52.494;7.546;2022-07-22T08:55:40;1.33;;;0.68;;
40787;SDS011;26497;52.494;7.546;2022-07-22T08:58:08;3.65;;;0.75;;
40787;SDS011;26497;52.494;7.546;2022-07-22T09:00:36;2.88;;;0.98;;
40787;SDS011;26497;52.494;7.546;2022-07-22T09:03:17;4.70;;;0.60;;
40787;SDS011;26497;52.494;7.546;2022-07-22T09:05:47;5.50;;;0.60;;
40787;SDS011;26497;52.494;7.546;2022-07-22T09:08:16;3.08;;;0.77;;
40787;SDS011;26497;52.494;7.546;2022-07-22T09:10:43;1.67;;;0.75;;
40787;SDS011;26497;52.494;7.546;2022-07-22T09:13:10;11.95;;;1.35;;
40787;SDS011;26497;52.494;7.546;2022-07-22T09:15:47;3.80;;;1.67;;
40787;SDS011;26497;52.494;7.546;2022-07-22T09:18:17;2.88;;;1.02;;
40787;SDS011;26497;52.494;7.546;2022-07-22T09:20:44;2.80;;;1.38;;
40787;SDS011;26497;52.494;7.546;2022-07-22T09:23:13;2.35;;;1.35;;
40787;SDS011;26497;52.494;7.546;2022-07-22T09:25:43;1.75;;;0.50;;
40787;SDS011;26497;52.494;7.546;2022-07-22T09:28:11;1.83;;;0.40;;
40787;SDS011;26497;52.494;7.546;2022-07-22T09:30:45;4.30;;;0.57;;
40787;SDS011;26497;52.494;7.546;2022-07-22T09:33:14;4.57;;;1.02;;
40787;SDS011;26497;52.494;7.546;2022-07-22T09:35:44;2.25;;;0.75;;
40787;SDS011;26497;52.494;7.546;2022-07-22T09:38:14;1.38;;;0.55;;
40787;SDS011;26497;52.494;7.546;2022-07-22T09:40:43;4.35;;;0.70;;
40787;SDS011;26497;52.494;7.546;2022-07-22T09:43:12;4.65;;;0.68;;
40787;SDS011;26497;52.494;7.546;2022-07-22T09:45:45;3.45;;;0.98;;
40787;SDS011;26497;52.494;7.546;2022-07-22T09:48:15;1.70;;;0.70;;
40787;SDS011;26497;52.494;7.546;2022-07-22T09:50:45;5.45;;;0.90;;
40787;SDS011;26497;52.494;7.546;2022-07-22T09:53:13;2.53;;;1.15;;
40787;SDS011;26497;52.494;7.546;2022-07-22T09:55:42;3.10;;;1.42;;
40787;SDS011;26497;52.494;7.546;2022-07-22T09:58:09;3.35;;;0.60;;
40787;SDS011;26497;52.494;7.546;2022-07-22T10:00:36;2.47;;;0.57;;
40787;SDS011;26497;52.494;7.546;2022-07-22T10:03:06;2.85;;;0.75;;
40787;SDS011;26497;52.494;7.546;2022-07-22T10:05:38;2.53;;;0.60;;
40787;SDS011;26497;52.494;7.546;2022-07-22T10:10:37;1.58;;;0.50;;
40787;SDS011;26497;52.494;7.546;2022-07-22T10:13:05;3.40;;;0.40;;
40787;SDS011;26497;52.494;7.546;2022-07-22T10:15:34;6.25;;;1.70;;
40787;SDS011;26497;52.494;7.546;2022-07-22T10:18:03;3.97;;;0.80;;
40787;SDS011;26497;52.494;7.546;2022-07-22T10:20:33;2.13;;;0.82;;
40787;SDS011;26497;52.494;7.546;2022-07-22T10:23:02;2.42;;;0.45;;
40787;SDS011;26497;52.494;7.546;2022-07-22T10:25:32;3.45;;;1.00;;
40787;SDS011;26497;52.494;7.546;2022-07-22T10:28:20;1.80;;;0.90;;
40787;SDS011;26497;52.494;7.546;2022-07-22T10:30:50;8.25;;;1.20;;
40787;SDS011;26497;52.494;7.546;2022-07-22T10:33:18;1.38;;;0.52;;
40787;SDS011;26497;52.494;7.546;2022-07-22T10:35:52;3.25;;;1.08;;
40787;SDS011;26497;52.494;7.546;2022-07-22T10:38:22;6.07;;;1.20;;
40787;SDS011;26497;52.494;7.546;2022-07-22T10:40:53;3.10;;;0.55;;
40787;SDS011;26497;52.494;7.546;2022-07-22T10:43:22;3.85;;;0.98;;
40787;SDS011;26497;52.494;7.546;2022-07-22T10:45:53;4.40;;;0.90;;
40787;SDS011;26497;52.494;7.546;2022-07-22T10:48:22;3.33;;;1.50;;
40787;SDS011;26497;52.494;7.546;2022-07-22T10:51:07;6.25;;;2.38;;
40787;SDS011;26497;52.494;7.546;2022-07-22T10:53:44;5.95;;;1.23;;
40787;SDS011;26497;52.494;7.546;2022-07-22T10:56:21;4.55;;;1.20;;
40787;SDS011;26497;52.494;7.546;2022-07-22T11:01:36;9.88;;;1.45;;
40787;SDS011;26497;52.494;7.546;2022-07-22T11:04:08;4.63;;;1.25;;
40787;SDS011;26497;52.494;7.546;2022-07-22T11:06:38;3.70;;;0.90;;
40787;SDS011;26497;52.494;7.546;2022-07-22T11:09:06;4.10;;;1.00;;
40787;SDS011;26497;52.494;7.546;2022-07-22T11:11:43;7.38;;;1.10;;
40787;SDS011;26497;52.494;7.546;2022-07-22T11:14:15;3.08;;;0.90;;
40787;SDS011;26497;52.494;7.546;2022-07-22T11:16:52;4.72;;;1.10;;
40787;SDS011;26497;52.494;7.546;2022-07-22T11:19:20;3.33;;;1.10;;
40787;SDS011;26497;52.494;7.546;2022-07-22T11:21:51;3.50;;;0.90;;
40787;SDS011;26497;52.494;7.546;2022-07-22T11:24:20;5.82;;;1.02;;
40787;SDS011;26497;52.494;7.546;2022-07-22T11:26:50;3.50;;;0.85;;
40787;SDS011;26497;52.494;7.546;2022-07-22T11:29:24;1.95;;;0.80;;
40787;SDS011;26497;52.494;7.546;2022-07-22T11:31:53;3.58;;;0.77;;
40787;SDS011;26497;52.494;7.546;2022-07-22T11:34:22;1.70;;;0.82;;
40787;SDS011;26497;52.494;7.546;2022-07-22T11:36:50;5.20;;;1.35;;
40787;SDS011;26497;52.494;7.546;2022-07-22T11:39:19;4.88;;;1.92;;
40787;SDS011;26497;52.494;7.546;2022-07-22T11:41:50;9.52;;;1.77;;
40787;SDS011;26497;52.494;7.546;2022-07-22T11:44:18;3.40;;;1.05;;
40787;SDS011;26497;52.494;7.546;2022-07-22T11:46:47;3.47;;;1.33;;
40787;SDS011;26497;52.494;7.546;2022-07-22T11:49:15;2.60;;;0.93;;
40787;SDS011;26497;52.494;7.546;2022-07-22T11:51:44;8.77;;;2.90;;
40787;SDS011;26497;52.494;7.546;2022-07-22T11:54:11;1.38;;;1.20;;
40787;SDS011;26497;52.494;7.546;2022-07-22T11:56:39;3.72;;;1.58;;
40787;SDS011;26497;52.494;7.546;2022-07-22T11:59:11;5.30;;;1.65;;
40787;SDS011;26497;52.494;7.546;2022-07-22T12:01:39;5.63;;;1.50;;
40787;SDS011;26497;52.494;7.546;2022-07-22T12:04:07;7.38;;;1.40;;
40787;SDS011;26497;52.494;7.546;2022-07-22T12:06:37;4.82;;;1.23;;
40787;SDS011;26497;52.494;7.546;2022-07-22T12:09:07;3.55;;;1.63;;
40787;SDS011;26497;52.494;7.546;2022-07-22T12:11:36;3.65;;;1.85;;
40787;SDS011;26497;52.494;7.546;2022-07-22T12:14:06;9.77;;;2.17;;
40787;SDS011;26497;52.494;7.546;2022-07-22T12:16:36;5.32;;;1.55;;
40787;SDS011;26497;52.494;7.546;2022-07-22T12:19:07;2.72;;;0.90;;
40787;SDS011;26497;52.494;7.546;2022-07-22T12:21:36;3.35;;;1.40;;
40787;SDS011;26497;52.494;7.546;2022-07-22T12:24:24;2.45;;;1.10;;
40787;SDS011;26497;52.494;7.546;2022-07-22T12:26:53;4.47;;;1.58;;
40787;SDS011;26497;52.494;7.546;2022-07-22T12:29:24;4.47;;;1.52;;
40787;SDS011;26497;52.494;7.546;2022-07-22T12:31:55;3.40;;;1.75;;
40787;SDS011;26497;52.494;7.546;2022-07-22T12:34:28;2.15;;;1.13;;
40787;SDS011;26497;52.494;7.546;2022-07-22T12:37:07;4.53;;;1.95;;
40787;SDS011;26497;52.494;7.546;2022-07-22T12:39:40;3.85;;;1.95;;
40787;SDS011;26497;52.494;7.546;2022-07-22T12:42:23;3.58;;;1.08;;
40787;SDS011;26497;52.494;7.546;2022-07-22T12:45:00;4.85;;;1.40;;
40787;SDS011;26497;52.494;7.546;2022-07-22T12:47:41;3.75;;;1.50;;
40787;SDS011;26497;52.494;7.546;2022-07-22T12:50:18;4.55;;;1.38;;
40787;SDS011;26497;52.494;7.546;2022-07-22T12:52:49;3.50;;;1.45;;
40787;SDS011;26497;52.494;7.546;2022-07-22T12:55:18;6.13;;;1.85;;
40787;SDS011;26497;52.494;7.546;2022-07-22T12:57:45;4.18;;;1.40;;
40787;SDS011;26497;52.494;7.546;2022-07-22T13:00:16;9.95;;;3.95;;
40787;SDS011;26497;52.494;7.546;2022-07-22T13:02:45;4.03;;;2.00;;
40787;SDS011;26497;52.494;7.546;2022-07-22T13:05:12;14.63;;;6.07;;
40787;SDS011;26497;52.494;7.546;2022-07-22T13:07:40;5.05;;;1.05;;
40787;SDS011;26497;52.494;7.546;2022-07-22T13:10:08;2.38;;;0.77;;
40787;SDS011;26497;52.494;7.546;2022-07-22T13:12:36;1.63;;;0.85;;
40787;SDS011;26497;52.494;7.546;2022-07-22T13:15:03;6.32;;;0.93;;
40787;SDS011;26497;52.494;7.546;2022-07-22T13:17:33;1.83;;;0.75;;
40787;SDS011;26497;52.494;7.546;2022-07-22T13:20:00;5.05;;;1.23;;
40787;SDS011;26497;52.494;7.546;2022-07-22T13:22:28;3.85;;;0.80;;
40787;SDS011;26497;52.494;7.546;2022-07-22T13:24:56;6.40;;;1.70;;
40787;SDS011;26497;52.494;7.546;2022-07-22T13:27:23;6.40;;;0.82;;
40787;SDS011;26497;52.494;7.546;2022-07-22T13:29:50;3.28;;;0.90;;
40787;SDS011;26497;52.494;7.546;2022-07-22T13:32:18;10.23;;;0.90;;
40787;SDS011;26497;52.494;7.546;2022-07-22T13:34:46;4.45;;;1.58;;
40787;SDS011;26497;52.494;7.546;2022-07-22T13:37:13;4.47;;;2.08;;
40787;SDS011;26497;52.494;7.546;2022-07-22T13:39:40;5.15;;;1.20;;
40787;SDS011;26497;52.494;7.546;2022-07-22T13:42:10;5.07;;;2.00;;
40787;SDS011;26497;52.494;7.546;2022-07-22T13:44:38;7.50;;;1.58;;
40787;SDS011;26497;52.494;7.546;2022-07-22T13:47:05;5.15;;;1.95;;
40787;SDS011;26497;52.494;7.546;2022-07-22T13:49:32;3.60;;;0.98;;
40787;SDS011;26497;52.494;7.546;2022-07-22T13:52:00;2.55;;;0.77;;
40787;SDS011;26497;52.494;7.546;2022-07-22T13:54:27;2.78;;;1.38;;
40787;SDS011;26497;52.494;7.546;2022-07-22T13:56:54;1.98;;;0.55;;
40787;SDS011;26497;52.494;7.546;2022-07-22T13:59:21;2.17;;;0.82;;
40787;SDS011;26497;52.494;7.546;2022-07-22T14:01:50;5.85;;;0.90;;
40787;SDS011;26497;52.494;7.546;2022-07-22T14:04:17;1.75;;;0.85;;
40787;SDS011;26497;52.494;7.546;2022-07-22T14:06:44;2.58;;;0.85;;
40787;SDS011;26497;52.494;7.546;2022-07-22T14:09:13;2.75;;;1.48;;
40787;SDS011;26497;52.494;7.546;2022-07-22T14:11:40;12.90;;;1.60;;
40787;SDS011;26497;52.494;7.546;2022-07-22T14:14:07;2.22;;;0.70;;
40787;SDS011;26497;52.494;7.546;2022-07-22T14:16:34;1.52;;;0.50;;
40787;SDS011;26497;52.494;7.546;2022-07-22T14:19:01;6.20;;;0.73;;
40787;SDS011;26497;52.494;7.546;2022-07-22T14:21:30;4.50;;;0.98;;
40787;SDS011;26497;52.494;7.546;2022-07-22T14:23:58;3.17;;;0.80;;
40787;SDS011;26497;52.494;7.546;2022-07-22T14:26:27;7.43;;;0.70;;
40787;SDS011;26497;52.494;7.546;2022-07-22T14:28:55;3.40;;;1.13;;
40787;SDS011;26497;52.494;7.546;2022-07-22T14:31:22;4.60;;;1.02;;
40787;SDS011;26497;52.494;7.546;2022-07-22T14:33:49;4.30;;;1.15;;
40787;SDS011;26497;52.494;7.546;2022-07-22T14:36:16;3.10;;;0.90;;
40787;SDS011;26497;52.494;7.546;2022-07-22T14:38:44;8.18;;;1.50;;
40787;SDS011;26497;52.494;7.546;2022-07-22T14:41:11;8.00;;;0.85;;
40787;SDS011;26497;52.494;7.546;2022-07-22T14:43:39;5.05;;;1.63;;
40787;SDS011;26497;52.494;7.546;2022-07-22T14:46:06;2.28;;;1.00;;
40787;SDS011;26497;52.494;7.546;2022-07-22T14:48:34;6.63;;;1.10;;
40787;SDS011;26497;52.494;7.546;2022-07-22T14:51:03;4.88;;;0.85;;
40787;SDS011;26497;52.494;7.546;2022-07-22T14:53:31;6.28;;;1.50;;
40787;SDS011;26497;52.494;7.546;2022-07-22T14:55:58;9.65;;;1.77;;
40787;SDS011;26497;52.494;7.546;2022-07-22T14:58:26;3.58;;;1.20;;
40787;SDS011;26497;52.494;7.546;2022-07-22T15:00:54;6.50;;;1.48;;
40787;SDS011;26497;52.494;7.546;2022-07-22T15:03:21;4.43;;;0.90;;